Hyalite Weather Station

This weather station provides temperature, wind speed, gust or max wind speed, and wind direction at 9982ft near the summit of Flanders Mountain. This data can be used with temperature and precipitation data from the Shower Falls SNOTEL site. If the data has not been updated recently you can view it directly on datagarrison.com

Elevation
9982ft
Jump to table bottom
Date Time Temperature
deg F
RH, % Wind Speed Wind Gust Wind Direction
02/24/24 01:00 17.5 65 28 45 W - 250
02/24/24 00:00 17.2 65 25 36 SW - 247
02/23/24 23:00 17.8 60 25 39 W - 253
02/23/24 22:00 18.2 57 26 38 W - 254
02/23/24 21:00 18.8 52 26 41 W - 256
02/23/24 20:00 20.3 47 26 45 W - 256
02/23/24 19:00 18.7 54 20 33 W - 254
02/23/24 18:00 19.2 51 16 24 W - 251
02/23/24 17:00 21.6 45 15 27 W - 251
02/23/24 16:00 21.7 36 17 32 W - 265
02/23/24 15:00 21.9 38 17 32 W - 263
02/23/24 14:00 21.1 42 14 26 W - 263
02/23/24 13:00 19.9 50 15 25 W - 251
02/23/24 12:00 19.5 51 15 29 W - 261
02/23/24 11:00 17.7 53 14 26 W - 267
02/23/24 10:00 15.3 61 18 30 W - 256
02/23/24 09:00 13.5 67 19 34 W - 257
02/23/24 08:00 13.5 68 21 33 W - 258
02/23/24 07:00 12.9 71 19 31 W - 256
02/23/24 06:00 13.3 69 21 37 W - 256
02/23/24 05:00 13.2 72 20 31 W - 253
02/23/24 04:00 12.9 78 19 30 W - 253
02/23/24 03:00 13.4 79 19 31 W - 253
02/23/24 02:00 13.9 79 20 31 W - 254
02/23/24 01:00 14.3 79 20 31 W - 250
02/23/24 00:00 14.8 78 20 32 W - 251
02/22/24 23:00 14.9 79 20 32 W - 253
02/22/24 22:00 15.6 77 20 33 W - 253
02/22/24 21:00 15.7 77 19 31 W - 257
02/22/24 20:00 16.4 69 21 34 W - 257
02/22/24 19:00 15.9 82 20 37 W - 265
02/22/24 18:00 16.1 81 17 32 W - 263
02/22/24 17:00 17.4 76 17 35 W - 261
02/22/24 16:00 18.0 77 15 31 W - 257
02/22/24 15:00 18.0 74 17 30 W - 257
02/22/24 14:00 18.2 81 11 22 W - 261
02/22/24 13:00 17.8 81 9 21 W - 256
02/22/24 12:00 17.4 81 8 19 W - 254
02/22/24 11:00 17.0 83 10 19 W - 248
02/22/24 10:00 15.7 84 11 18 W - 257
02/22/24 09:00 15.3 84 12 19 W - 258
02/22/24 08:00 15.2 84 13 20 W - 260
02/22/24 07:00 14.9 84 12 21 W - 258
02/22/24 06:00 15.1 84 12 20 W - 251
02/22/24 05:00 15.5 84 13 24 W - 258
02/22/24 04:00 15.8 84 9 21 SW - 247
02/22/24 03:00 16.1 84 6 13 SW - 247
02/22/24 02:00 16.3 84 7 13 W - 260
02/22/24 01:00 16.3 84 9 15 W - 264
02/22/24 00:00 16.4 83 10 17 W - 263